Terminal Aerodrome Forecast
Issued by NWS Raleigh/Durham, NC

Home | Current Version | Previous Version | Text Only | Print | Product List | Glossary On
Versions: 1 2 3 4 5 6 7 8 9 10 11 12 13 14 15 16 17 18 19 20 21 22 23 24 25 26 27 28 29 30 31 32 33 34 35 36
000
FTUS42 KRAH 261307 AAA
TAFGSO
TAF AMD
KGSO 261307Z 2613/2712 18007KT P6SM FEW030 SCT050 BKN250
      TEMPO 2613/2617 BKN028
     FM261700 18011G18KT P6SM BKN040 BKN250
      TEMPO 2621/2624 26015G25KT 5SM -SHRA SCT024 OVC035
     FM270900 18006KT P6SM BKN012 BKN250=

USA.gov is the U.S. government's official web portal to all federal, state and local government web resources and services.